Time;durP1;ratioP1;P1;durP2;ratioP2;P2;SDS_P1;SDS_P2;PMS_P1;PMS_P2;Temp;Humidity;BMP_temperature;BMP_pressure;BME280_temperature;BME280_humidity;BME280_pressure;Samples;Min_cycle;Max_cycle;Signal;HPM_P1;HPM_P2
2022/07/29 00:00:28;;;;;;;9.45;3.28;;;;;;;17.07;51.99;98695.00;5090645;28;20474;-74
2022/07/29 00:02:54;;;;;;;6.93;3.22;;;;;;;17.06;52.27;98696.16;5089433;28;20027;-75
2022/07/29 00:05:19;;;;;;;6.55;3.17;;;;;;;17.05;52.26;98702.00;5090810;28;20032;-74
2022/07/29 00:07:45;;;;;;;6.82;3.35;;;;;;;17.03;52.29;98696.81;5091024;28;20115;-75
2022/07/29 00:10:10;;;;;;;9.02;3.40;;;;;;;17.02;52.69;98697.97;5090673;28;20035;-75
2022/07/29 00:12:36;;;;;;;8.85;3.40;;;;;;;17.02;52.59;98699.91;5090368;28;20044;-74
2022/07/29 00:15:02;;;;;;;6.78;3.35;;;;;;;17.01;52.67;98698.28;5090954;28;20035;-75
2022/07/29 00:17:28;;;;;;;7.75;3.83;;;;;;;16.99;52.81;98695.03;5090305;28;20111;-75
2022/07/29 00:19:53;;;;;;;4.95;3.30;;;;;;;16.98;52.95;98699.78;5090009;28;20107;-75
2022/07/29 00:22:19;;;;;;;6.13;3.30;;;;;;;16.94;52.97;98699.56;5089451;28;20105;-75
2022/07/29 00:24:47;;;;;;;7.07;3.38;;;;;;;16.93;53.34;98702.69;5090434;28;20028;-75
2022/07/29 00:27:12;;;;;;;6.65;3.30;;;;;;;16.90;53.36;98693.09;5089629;28;20428;-74
2022/07/29 00:29:38;;;;;;;10.20;3.80;;;;;;;16.88;53.34;98689.84;5089852;28;20089;-75
2022/07/29 00:32:04;;;;;;;8.70;3.63;;;;;;;16.85;53.16;98687.75;5090271;28;20049;-74
2022/07/29 00:37:15;;;;;;;6.45;3.47;;;;;;;16.82;53.48;98697.53;5090124;28;20058;-74
2022/07/29 00:39:40;;;;;;;9.95;3.63;;;;;;;16.80;53.84;98683.19;5090027;28;20020;-75
2022/07/29 00:42:06;;;;;;;9.40;3.88;;;;;;;16.76;53.66;98687.75;5090077;28;20020;-74
2022/07/29 00:44:39;;;;;;;6.80;3.55;;;;;;;16.72;53.78;98680.47;5090284;28;20086;-75
2022/07/29 00:47:05;;;;;;;6.22;3.70;;;;;;;16.67;54.21;98681.47;5072783;28;20115;-74
2022/07/29 00:49:31;;;;;;;5.53;3.33;;;;;;;16.64;54.11;98674.63;5089645;28;20563;-74
2022/07/29 00:51:57;;;;;;;7.88;3.70;;;;;;;16.61;54.53;98671.72;5089867;28;20059;-74
2022/07/29 00:54:23;;;;;;;6.20;3.47;;;;;;;16.57;54.74;98676.28;5089729;28;20028;-74
2022/07/29 00:56:49;;;;;;;6.25;3.80;;;;;;;16.56;54.69;98672.69;5089978;28;20032;-73
2022/07/29 00:59:14;;;;;;;5.45;3.40;;;;;;;16.54;54.81;98680.50;5089436;28;20518;-74
2022/07/29 01:01:40;;;;;;;7.85;3.63;;;;;;;16.52;54.75;98669.78;5089741;28;20028;-74
2022/07/29 01:04:06;;;;;;;6.30;3.35;;;;;;;16.51;54.77;98668.16;5085718;28;20568;-74
2022/07/29 01:06:34;;;;;;;5.72;3.50;;;;;;;16.53;54.71;98678.88;5089696;28;20030;-75
2022/07/29 01:09:00;;;;;;;6.28;3.05;;;;;;;16.52;55.07;98668.94;5089915;28;20479;-74
2022/07/29 01:11:25;;;;;;;5.90;3.38;;;;;;;16.52;55.07;98671.72;5089540;28;20107;-75
2022/07/29 01:13:52;;;;;;;5.70;3.40;;;;;;;16.51;54.97;98678.41;5089307;28;20052;-74
2022/07/29 01:16:41;;;;;;;6.50;3.28;;;;;;;16.49;55.32;98684.28;5089968;28;20099;-74
2022/07/29 01:19:20;;;;;;;6.82;3.70;;;;;;;16.50;54.96;98665.72;5088456;28;20024;-74
2022/07/29 01:21:57;;;;;;;6.18;3.63;;;;;;;16.50;54.89;98674.03;5089492;28;20084;-74
2022/07/29 01:24:34;;;;;;;5.18;3.30;;;;;;;16.50;55.50;98662.97;5089898;28;20020;-74
2022/07/29 01:27:37;;;;;;;7.00;3.20;;;;;;;16.47;55.09;98660.84;5089366;28;20116;-74
2022/07/29 01:30:03;;;;;;;7.85;3.22;;;;;;;16.47;55.45;98658.88;5089418;28;20024;-74
2022/07/29 01:32:35;;;;;;;8.38;3.67;;;;;;;16.43;55.42;98657.91;5089447;28;20546;-75
2022/07/29 01:35:12;;;;;;;7.05;3.47;;;;;;;16.43;55.14;98659.88;5088074;28;20028;-74
2022/07/29 01:37:49;;;;;;;9.32;3.40;;;;;;;16.39;55.33;98659.72;5089312;28;20515;-74
2022/07/29 01:40:44;;;;;;;6.82;3.10;;;;;;;16.37;55.34;98659.22;5089544;28;20028;-74
2022/07/29 01:43:12;;;;;;;6.93;3.67;;;;;;;16.34;55.54;98655.19;5088187;28;20048;-74
2022/07/29 01:45:53;;;;;;;6.78;3.45;;;;;;;16.31;55.33;98650.31;5089838;28;20361;-74
2022/07/29 01:48:27;;;;;;;6.22;3.30;;;;;;;16.31;55.57;98655.84;5068515;28;20024;-74
2022/07/29 01:51:12;;;;;;;6.82;3.40;;;;;;;16.30;55.47;98653.41;5088226;28;20504;-74
2022/07/29 01:53:55;;;;;;;8.27;3.38;;;;;;;16.29;55.52;98652.59;5086549;28;20050;-74
2022/07/29 01:56:22;;;;;;;6.25;3.42;;;;;;;16.31;56.11;98650.31;5087686;28;20039;-73
2022/07/29 01:58:51;;;;;;;6.10;3.22;;;;;;;16.30;55.58;98634.84;5088876;28;20028;-74
2022/07/29 02:01:17;;;;;;;9.30;3.10;;;;;;;16.32;55.80;98651.09;5087503;28;20400;-74
2022/07/29 02:03:45;;;;;;;7.43;3.50;;;;;;;16.29;55.82;98647.06;5089074;28;20044;-74
2022/07/29 02:06:12;;;;;;;7.32;3.60;;;;;;;16.27;55.38;98645.78;5088830;28;20028;-74
2022/07/29 02:08:39;;;;;;;7.82;3.63;;;;;;;16.24;55.98;98644.47;5089349;28;20039;-74
2022/07/29 02:11:07;;;;;;;5.53;3.30;;;;;;;16.22;56.06;98643.97;5088847;28;20058;-74
2022/07/29 02:13:35;;;;;;;5.15;3.17;;;;;;;16.19;56.27;98651.00;5088201;28;20040;-73
2022/07/29 02:16:04;;;;;;;4.85;2.85;;;;;;;16.14;55.87;98642.88;5089003;28;20058;-74
2022/07/29 02:18:31;;;;;;;5.57;3.05;;;;;;;16.12;56.08;98644.31;5088544;28;20029;-74
2022/07/29 02:20:59;;;;;;;6.88;3.08;;;;;;;16.12;55.84;98653.44;5088618;28;20052;-74
2022/07/29 02:23:26;;;;;;;5.75;3.05;;;;;;;16.11;56.07;98648.22;5088832;28;20086;-73
2022/07/29 02:25:57;;;;;;;5.95;2.72;;;;;;;16.09;56.04;98642.22;5072247;28;20116;-77
2022/07/29 02:28:28;;;;;;;6.07;2.78;;;;;;;16.07;55.64;98637.84;5092352;28;20026;-76
2022/07/29 02:30:57;;;;;;;4.72;3.40;;;;;;;16.06;56.18;98633.44;5092438;28;20032;-75
2022/07/29 02:33:25;;;;;;;5.47;3.08;;;;;;;16.04;55.78;98630.19;5092819;28;20456;-75
2022/07/29 02:35:52;;;;;;;7.40;2.88;;;;;;;16.02;56.09;98632.47;5092443;28;20042;-79
2022/07/29 02:41:11;;;;;;;5.25;2.75;;;;;;;15.98;55.71;98639.81;5092761;28;20058;-77
2022/07/29 02:43:36;;;;;;;6.72;3.10;;;;;;;15.97;56.01;98634.59;5074896;28;20090;-76
2022/07/29 02:46:06;;;;;;;4.90;3.00;;;;;;;15.96;55.88;98632.97;5092711;28;20035;-78
2022/07/29 02:48:55;;;;;;;4.10;2.75;;;;;;;15.95;55.66;98632.16;5093177;28;20028;-76
2022/07/29 02:51:32;;;;;;;5.60;2.80;;;;;;;15.95;55.81;98634.09;5092122;28;20024;-75
2022/07/29 02:54:05;;;;;;;4.15;2.83;;;;;;;15.96;55.72;98628.25;5093117;28;20114;-76
2022/07/29 02:56:37;;;;;;;11.48;3.10;;;;;;;15.99;55.90;98629.53;5092960;28;20492;-76
2022/07/29 02:59:07;;;;;;;4.53;2.60;;;;;;;15.99;55.59;98629.53;5092659;28;20023;-76
2022/07/29 03:01:36;;;;;;;4.40;2.72;;;;;;;15.98;55.64;98627.91;5091333;28;20059;-76
2022/07/29 03:04:04;;;;;;;5.25;2.53;;;;;;;15.96;55.96;98622.72;5092698;28;20054;-76
2022/07/29 03:06:32;;;;;;;6.45;2.83;;;;;;;15.93;55.54;98624.16;5092606;28;20024;-76
2022/07/29 03:08:59;;;;;;;5.70;3.10;;;;;;;15.93;55.46;98617.84;5092501;28;20534;-76
2022/07/29 03:11:26;;;;;;;3.80;2.40;;;;;;;15.92;55.79;98613.44;5092489;28;20031;-76
2022/07/29 03:13:51;;;;;;;6.07;2.78;;;;;;;15.92;55.65;98613.44;5092930;28;20530;-75
2022/07/29 03:16:19;;;;;;;5.10;2.70;;;;;;;15.92;55.08;98605.16;5092437;28;20484;-75
2022/07/29 03:18:45;;;;;;;5.05;2.55;;;;;;;15.93;55.37;98612.31;5092195;28;20024;-76
2022/07/29 03:21:11;;;;;;;4.05;2.33;;;;;;;15.93;55.38;98610.34;5092191;28;20048;-76
2022/07/29 03:23:36;;;;;;;3.72;2.13;;;;;;;15.95;55.55;98615.56;5092171;28;20033;-76
2022/07/29 03:26:02;;;;;;;5.13;2.25;;;;;;;16.01;55.68;98619.78;5092203;28;20525;-76
2022/07/29 03:28:27;;;;;;;4.05;2.30;;;;;;;16.03;55.57;98623.03;5074058;28;20490;-75
2022/07/29 03:30:53;;;;;;;6.85;2.20;;;;;;;16.06;55.32;98621.56;5091990;28;20065;-75
2022/07/29 03:33:19;;;;;;;2.75;2.00;;;;;;;16.11;55.22;98623.31;5091948;28;20062;-76
2022/07/29 03:35:44;;;;;;;3.15;2.30;;;;;;;16.12;55.28;98622.19;5092266;28;20065;-76
2022/07/29 03:38:10;;;;;;;5.18;2.40;;;;;;;16.16;54.75;98621.22;5090273;28;20035;-76
2022/07/29 03:40:42;;;;;;;3.03;2.28;;;;;;;16.20;54.98;98627.72;5074094;28;20032;-75
2022/07/29 03:43:09;;;;;;;8.20;2.28;;;;;;;16.25;54.78;98623.94;5092310;28;20048;-77
2022/07/29 03:45:36;;;;;;;4.18;2.05;;;;;;;16.31;54.91;98624.56;5091562;28;20043;-77
2022/07/29 03:48:06;;;;;;;7.20;1.98;;;;;;;16.36;54.77;98625.22;5073367;28;20020;-77
2022/07/29 03:50:34;;;;;;;4.13;1.90;;;;;;;16.42;54.78;98630.59;5092167;28;20024;-76
2022/07/29 03:53:00;;;;;;;4.93;2.05;;;;;;;16.47;54.50;98627.63;5091575;28;20428;-77
2022/07/29 03:55:28;;;;;;;3.50;1.88;;;;;;;16.51;54.12;98629.41;5091677;28;20149;-76
2022/07/29 03:57:56;;;;;;;4.35;1.88;;;;;;;16.55;54.48;98632.31;5091819;28;20027;-77
2022/07/29 04:00:25;;;;;;;6.15;2.00;;;;;;;16.58;54.75;98637.19;5072588;28;20031;-76
2022/07/29 04:02:50;;;;;;;4.07;2.00;;;;;;;16.61;54.73;98639.28;5091606;28;20016;-76
2022/07/29 04:05:16;;;;;;;3.65;1.88;;;;;;;16.65;53.99;98631.94;5091841;28;20491;-77
2022/07/29 04:07:48;;;;;;;4.78;1.90;;;;;;;16.65;54.21;98634.72;5091031;28;20039;-77
2022/07/29 04:10:18;;;;;;;4.05;2.00;;;;;;;16.67;54.59;98634.38;5091404;28;20495;-77
2022/07/29 04:12:44;;;;;;;2.72;1.73;;;;;;;16.67;54.21;98624.13;5073782;28;20020;-77
2022/07/29 04:15:10;;;;;;;4.15;2.38;;;;;;;16.68;54.26;98624.94;5091477;28;20031;-76
2022/07/29 04:17:35;;;;;;;5.07;1.65;;;;;;;16.63;54.46;98620.38;5091166;28;20149;-77
2022/07/29 04:20:00;;;;;;;3.63;1.90;;;;;;;16.60;54.21;98615.50;5091604;28;20036;-77
2022/07/29 04:22:26;;;;;;;5.43;2.10;;;;;;;16.60;54.24;98614.72;5091071;28;20288;-77
2022/07/29 04:24:51;;;;;;;5.65;2.60;;;;;;;16.57;54.35;98610.63;5073185;28;20036;-74
2022/07/29 04:27:17;;;;;;;4.28;2.47;;;;;;;16.54;54.66;98605.75;5091379;28;20024;-74
2022/07/29 04:29:42;;;;;;;4.28;2.45;;;;;;;16.52;54.36;98591.44;5091266;28;20238;-74
2022/07/29 04:32:07;;;;;;;4.60;2.35;;;;;;;16.51;54.58;98598.94;5090962;28;20020;-77
2022/07/29 04:34:33;;;;;;;2.72;1.80;;;;;;;16.52;54.30;98608.03;5091664;28;20495;-77
2022/07/29 04:36:58;;;;;;;4.70;1.95;;;;;;;16.52;54.31;98600.56;5090942;28;20030;-77
2022/07/29 04:39:24;;;;;;;5.18;1.83;;;;;;;16.55;54.15;98610.16;5090907;28;20026;-76
2022/07/29 04:41:50;;;;;;;4.47;1.92;;;;;;;16.59;54.24;98613.09;5090996;28;20024;-76
2022/07/29 04:44:16;;;;;;;4.90;1.70;;;;;;;16.61;54.24;98614.38;5090811;28;20380;-77
2022/07/29 04:46:41;;;;;;;3.28;1.88;;;;;;;16.66;54.38;98616.94;5090596;28;20448;-77
2022/07/29 04:49:06;;;;;;;4.90;2.40;;;;;;;16.71;54.66;98602.09;5090498;28;20022;-77
2022/07/29 04:51:32;;;;;;;4.43;2.30;;;;;;;16.75;54.38;98602.25;5090870;28;20107;-77
2022/07/29 04:53:57;;;;;;;4.88;1.80;;;;;;;16.80;54.73;98604.84;5090461;28;20102;-77
2022/07/29 04:56:23;;;;;;;3.78;2.10;;;;;;;16.80;54.51;98611.19;5090564;28;20047;-77
2022/07/29 04:58:48;;;;;;;4.07;1.85;;;;;;;16.84;54.79;98613.28;5090373;28;20027;-76
2022/07/29 05:01:14;;;;;;;3.20;1.50;;;;;;;16.91;54.67;98619.09;5090555;28;20016;-76
2022/07/29 05:03:41;;;;;;;3.15;1.85;;;;;;;17.00;54.43;98624.63;5090595;28;20605;-76
2022/07/29 05:06:06;;;;;;;4.18;1.95;;;;;;;17.06;54.64;98621.34;5090520;28;20107;-77
2022/07/29 05:08:32;;;;;;;3.15;1.90;;;;;;;17.16;54.44;98622.06;5090165;28;20022;-77
2022/07/29 05:10:57;;;;;;;2.85;1.98;;;;;;;17.30;54.49;98627.38;5090405;28;20028;-77
2022/07/29 05:13:23;;;;;;;3.58;2.00;;;;;;;17.43;54.64;98617.16;5090725;28;20029;-77
2022/07/29 05:15:48;;;;;;;7.80;2.25;;;;;;;17.59;54.42;98623.72;5090536;28;20035;-76
2022/07/29 05:18:14;;;;;;;4.45;1.80;;;;;;;17.74;54.10;98616.72;5090178;28;20067;-77
2022/07/29 05:20:39;;;;;;;4.13;1.88;;;;;;;17.89;54.42;98620.84;5090309;28;20051;-77
2022/07/29 05:23:05;;;;;;;4.28;1.75;;;;;;;18.00;54.25;98613.72;5090268;28;20069;-77
2022/07/29 05:25:31;;;;;;;2.90;1.90;;;;;;;18.10;54.23;98611.69;5090308;28;20028;-76
2022/07/29 05:27:56;;;;;;;3.08;1.92;;;;;;;18.18;54.01;98612.72;5089953;28;20111;-76
2022/07/29 05:30:22;;;;;;;2.47;2.00;;;;;;;18.23;53.97;98612.50;5090920;28;20107;-76
2022/07/29 05:32:49;;;;;;;7.13;2.15;;;;;;;18.27;53.92;98611.50;5090589;28;20024;-76
2022/07/29 05:35:15;;;;;;;4.97;2.22;;;;;;;18.36;53.95;98608.63;5090756;28;20028;-77
2022/07/29 05:37:41;;;;;;;4.82;2.15;;;;;;;18.41;54.08;98600.06;5090427;28;20020;-77
2022/07/29 05:40:07;;;;;;;2.53;1.70;;;;;;;18.45;53.69;98609.31;5072480;28;20032;-76
2022/07/29 05:42:33;;;;;;;4.22;2.10;;;;;;;18.49;53.62;98603.88;5090380;28;20035;-76
2022/07/29 05:44:58;;;;;;;4.97;2.05;;;;;;;18.54;53.69;98595.31;5090487;28;20028;-76
2022/07/29 05:47:24;;;;;;;4.40;2.30;;;;;;;18.62;53.99;98601.13;5090414;28;20031;-77
2022/07/29 05:49:51;;;;;;;7.80;2.22;;;;;;;18.69;54.23;98596.59;5090180;28;20032;-77
2022/07/29 05:52:17;;;;;;;4.63;2.20;;;;;;;18.80;53.93;98601.69;5090197;28;20024;-77
2022/07/29 05:54:42;;;;;;;3.22;1.92;;;;;;;18.85;53.91;98598.69;5090511;28;20030;-76
2022/07/29 05:57:08;;;;;;;4.25;2.28;;;;;;;18.89;53.72;98596.84;5090581;28;20495;-77
2022/07/29 05:59:37;;;;;;;4.07;2.40;;;;;;;18.95;53.73;98595.41;5090115;28;20055;-77
2022/07/29 06:02:04;;;;;;;3.92;2.22;;;;;;;19.04;53.66;98587.00;5093714;28;20059;-77
2022/07/29 06:04:31;;;;;;;4.78;2.08;;;;;;;19.14;53.68;98589.31;5094170;28;20031;-77
2022/07/29 06:06:56;;;;;;;4.10;2.17;;;;;;;19.24;53.64;98593.56;5094234;28;20119;-76
2022/07/29 06:09:22;;;;;;;4.57;2.15;;;;;;;19.31;53.65;98587.41;5093711;28;20028;-76
2022/07/29 06:11:48;;;;;;;4.25;2.40;;;;;;;19.37;53.67;98602.69;5092339;28;20020;-75
2022/07/29 06:14:13;;;;;;;4.20;2.60;;;;;;;19.48;53.96;98603.00;5093206;28;20031;-77
2022/07/29 06:16:39;;;;;;;6.78;2.58;;;;;;;19.56;53.87;98604.03;5092859;28;20058;-75
2022/07/29 06:19:05;;;;;;;6.88;2.50;;;;;;;19.68;54.17;98615.09;5090633;28;20113;-75
2022/07/29 06:21:30;;;;;;;6.18;2.50;;;;;;;19.76;53.84;98610.56;5092306;28;20570;-78
2022/07/29 06:23:56;;;;;;;3.55;2.35;;;;;;;19.86;53.83;98623.94;5092651;28;20012;-76
2022/07/29 06:26:21;;;;;;;5.78;2.45;;;;;;;19.98;54.11;98613.97;5074645;28;20468;-75
2022/07/29 06:28:46;;;;;;;5.05;2.78;;;;;;;20.07;53.68;98611.81;5092845;28;20024;-76
2022/07/29 06:31:12;;;;;;;6.03;2.60;;;;;;;20.14;53.71;98614.81;5093230;28;20032;-78
2022/07/29 06:33:37;;;;;;;6.88;2.50;;;;;;;20.23;53.59;98618.22;5093262;28;20020;-78
2022/07/29 06:36:06;;;;;;;4.85;3.40;;;;;;;20.33;53.59;98611.31;5093130;28;20030;-77
2022/07/29 06:38:33;;;;;;;7.57;2.78;;;;;;;20.49;53.74;98622.47;5089965;28;20107;-77
2022/07/29 06:41:02;;;;;;;5.78;2.72;;;;;;;20.65;53.53;98614.13;5069978;28;20032;-77
2022/07/29 06:43:37;;;;;;;11.50;3.10;;;;;;;20.86;53.37;98620.59;5088221;28;20039;-73
2022/07/29 06:46:08;;;;;;;7.07;2.83;;;;;;;21.02;53.30;98610.22;5071845;28;20473;-76
2022/07/29 06:48:34;;;;;;;8.45;3.08;;;;;;;21.22;53.00;98625.00;5089760;28;20031;-78
2022/07/29 06:51:00;;;;;;;5.80;3.08;;;;;;;21.33;52.59;98618.88;5089966;28;20034;-77
2022/07/29 06:53:27;;;;;;;5.30;2.53;;;;;;;21.39;52.49;98620.22;5090870;28;20019;-75
2022/07/29 06:55:53;;;;;;;8.27;3.35;;;;;;;21.48;52.35;98618.03;5086965;28;20028;-77
2022/07/29 06:58:20;;;;;;;5.53;3.00;;;;;;;21.63;52.26;98609.97;5089854;28;20032;-75
2022/07/29 07:00:49;;;;;;;4.82;3.03;;;;;;;21.83;52.04;98607.97;5086309;28;20024;-76
2022/07/29 07:03:15;;;;;;;8.15;3.20;;;;;;;22.01;51.71;98603.56;5088793;28;20086;-74
2022/07/29 07:05:41;;;;;;;7.72;3.60;;;;;;;22.25;51.46;98601.59;5089906;28;20028;-75
2022/07/29 07:08:07;;;;;;;7.43;3.50;;;;;;;22.45;51.25;98604.38;5073071;28;20056;-74
2022/07/29 07:10:34;;;;;;;9.20;3.33;;;;;;;22.66;51.45;98608.69;5089713;28;20016;-78
2022/07/29 07:13:00;;;;;;;6.97;3.33;;;;;;;22.86;51.22;98606.63;5090012;28;20028;-75
2022/07/29 07:15:26;;;;;;;8.55;3.28;;;;;;;23.03;50.74;98608.06;5088731;28;20024;-74
2022/07/29 07:17:51;;;;;;;6.53;3.40;;;;;;;23.12;50.08;98605.03;5089990;28;20031;-77
2022/07/29 07:20:17;;;;;;;5.68;3.67;;;;;;;23.17;49.96;98601.91;5069676;28;20039;-76
2022/07/29 07:22:43;;;;;;;5.63;3.70;;;;;;;23.14;49.93;98606.25;5089224;28;20423;-78
2022/07/29 07:25:10;;;;;;;4.47;3.10;;;;;;;23.05;50.05;98602.91;5091045;28;20046;-77
2022/07/29 07:27:36;;;;;;;4.85;3.10;;;;;;;22.92;49.92;98610.72;5088893;28;20051;-76
2022/07/29 07:30:05;;;;;;;7.30;3.50;;;;;;;22.78;49.95;98608.50;5088583;28;20055;-75
2022/07/29 07:32:31;;;;;;;7.87;3.90;;;;;;;22.64;49.88;98611.88;5085230;28;20031;-75
2022/07/29 07:34:57;;;;;;;6.32;3.35;;;;;;;22.54;50.20;98613.31;5087000;28;20070;-72
2022/07/29 07:37:24;;;;;;;5.60;3.30;;;;;;;22.53;50.27;98620.09;5087438;28;20048;-74
2022/07/29 07:39:50;;;;;;;5.85;3.35;;;;;;;22.65;50.57;98621.06;5087346;28;20051;-75
2022/07/29 07:42:15;;;;;;;5.10;3.35;;;;;;;22.83;50.74;98618.53;5090190;28;20480;-75
2022/07/29 07:44:41;;;;;;;4.32;3.08;;;;;;;23.05;50.80;98616.88;5090214;28;20101;-80
2022/07/29 07:47:06;;;;;;;4.55;3.10;;;;;;;23.17;50.46;98627.06;5072294;28;20023;-77
2022/07/29 07:49:32;;;;;;;5.70;3.17;;;;;;;23.20;49.98;98623.53;5089176;28;20024;-77
2022/07/29 07:51:57;;;;;;;4.65;3.40;;;;;;;23.18;50.11;98623.88;5088133;28;20034;-78
2022/07/29 07:54:22;;;;;;;5.63;3.00;;;;;;;23.17;50.12;98615.88;5088934;28;20103;-80
2022/07/29 07:56:49;;;;;;;4.05;3.47;;;;;;;23.15;50.26;98609.84;5089462;28;20027;-76
2022/07/29 07:59:15;;;;;;;5.60;3.20;;;;;;;23.17;50.29;98613.88;5086541;28;20034;-78
2022/07/29 08:01:41;;;;;;;4.53;2.85;;;;;;;23.20;50.27;98613.13;5087177;28;20091;-78
2022/07/29 08:04:07;;;;;;;7.50;3.33;;;;;;;23.31;50.36;98612.50;5087266;28;20110;-74
2022/07/29 08:06:34;;;;;;;5.13;2.92;;;;;;;23.51;50.39;98620.75;5089153;28;20064;-79
2022/07/29 08:09:00;;;;;;;4.70;3.15;;;;;;;23.78;50.63;98613.09;5088954;28;20384;-78
2022/07/29 08:11:26;;;;;;;4.65;3.45;;;;;;;24.08;50.36;98612.25;5085793;28;20031;-77
2022/07/29 08:13:51;;;;;;;6.15;3.03;;;;;;;24.35;49.85;98604.53;5090663;28;20496;-78
2022/07/29 08:16:17;;;;;;;5.68;3.17;;;;;;;24.64;49.71;98613.22;5088817;28;20097;-78
2022/07/29 08:18:45;;;;;;;5.43;3.40;;;;;;;24.86;49.23;98612.63;5088350;28;20024;-79
2022/07/29 08:21:11;;;;;;;5.55;3.28;;;;;;;25.01;48.56;98610.72;5087685;28;20451;-78
2022/07/29 08:23:44;;;;;;;9.10;3.33;;;;;;;25.16;48.21;98615.22;5087535;28;20023;-79
2022/07/29 08:26:10;;;;;;;6.10;3.50;;;;;;;25.26;47.85;98616.50;5065475;28;20028;-82
2022/07/29 08:28:40;;;;;;;6.10;3.53;;;;;;;25.38;47.95;98613.34;5087898;28;20093;-81
2022/07/29 08:31:05;;;;;;;3.88;3.40;;;;;;;25.53;47.52;98611.44;5088758;28;20054;-79
2022/07/29 08:33:32;;;;;;;4.50;3.42;;;;;;;25.67;47.18;98616.31;5086611;28;20464;-78
2022/07/29 08:35:57;;;;;;;7.95;3.80;;;;;;;25.74;46.74;98614.72;5089532;28;20036;-79
2022/07/29 08:38:23;;;;;;;7.80;4.50;;;;;;;25.78;46.67;98619.16;5088814;28;20097;-79
2022/07/29 08:40:48;;;;;;;5.45;3.45;;;;;;;25.89;46.63;98618.38;5087549;28;20034;-79
2022/07/29 08:43:14;;;;;;;8.77;3.80;;;;;;;26.04;46.37;98611.63;5088766;28;20028;-78
2022/07/29 08:45:45;;;;;;;5.80;3.70;;;;;;;26.20;46.85;98604.88;5088726;28;20063;-75
2022/07/29 08:48:15;;;;;;;6.10;3.85;;;;;;;26.36;46.37;98607.31;5088001;28;20062;-82
2022/07/29 08:50:42;;;;;;;4.63;3.78;;;;;;;26.41;46.42;98602.06;5071240;28;20024;-79
2022/07/29 08:53:12;;;;;;;5.50;3.25;;;;;;;26.45;45.80;98602.88;5090652;28;20054;-80
2022/07/29 08:55:45;;;;;;;5.05;3.50;;;;;;;26.47;45.67;98596.88;5089094;28;20042;-78
2022/07/29 08:58:12;;;;;;;6.90;3.70;;;;;;;26.50;45.55;98596.03;5089433;28;20074;-79
2022/07/29 09:00:42;;;;;;;6.95;4.00;;;;;;;26.53;45.49;98592.44;5071835;28;20042;-77
2022/07/29 09:03:11;;;;;;;6.43;3.80;;;;;;;26.55;45.47;98594.88;5088644;28;20039;-81
2022/07/29 09:05:40;;;;;;;4.88;3.75;;;;;;;26.59;45.35;98592.84;5087901;28;20148;-79
2022/07/29 09:08:06;;;;;;;5.95;3.72;;;;;;;26.62;45.19;98591.25;5087382;28;20012;-80
2022/07/29 09:10:32;;;;;;;5.72;4.40;;;;;;;26.66;45.01;98595.69;5089465;28;20027;-79
2022/07/29 09:12:59;;;;;;;8.15;3.70;;;;;;;26.67;44.86;98582.41;5071454;28;20064;-80
2022/07/29 09:15:24;;;;;;;4.75;3.63;;;;;;;26.66;44.76;98586.41;5071457;28;20062;-78
2022/07/29 09:17:50;;;;;;;5.68;3.60;;;;;;;26.67;44.67;98588.84;5088986;28;20055;-80
2022/07/29 09:20:19;;;;;;;4.70;3.90;;;;;;;26.74;44.82;98594.44;5087681;28;20059;-80
2022/07/29 09:22:48;;;;;;;7.05;3.88;;;;;;;26.74;44.14;98594.44;5086170;28;20476;-80
2022/07/29 09:25:34;;;;;;;6.40;3.60;;;;;;;26.73;44.01;98592.84;5090484;28;20040;-82
2022/07/29 09:28:08;;;;;;;5.57;3.65;;;;;;;26.79;44.84;98587.63;5089067;28;20048;-81
2022/07/29 09:30:33;;;;;;;8.57;4.00;;;;;;;26.94;44.48;98590.44;5088073;28;20095;-79
2022/07/29 09:33:02;;;;;;;7.65;3.90;;;;;;;27.05;44.07;98594.03;5089723;28;20099;-81
2022/07/29 09:35:31;;;;;;;7.32;3.55;;;;;;;27.08;43.52;98601.69;5091545;28;20032;-79
2022/07/29 09:37:57;;;;;;;5.25;3.63;;;;;;;27.15;43.89;98600.84;5093051;28;20028;-80
2022/07/29 09:40:25;;;;;;;6.18;3.70;;;;;;;27.30;43.85;98601.66;5093264;28;20028;-79
2022/07/29 09:42:52;;;;;;;4.10;3.70;;;;;;;27.37;43.70;98592.38;5091395;28;20028;-78
2022/07/29 09:45:34;;;;;;;5.13;3.63;;;;;;;27.48;43.32;98587.53;5092941;28;20387;-77
2022/07/29 09:48:14;;;;;;;6.32;4.00;;;;;;;27.60;43.84;98580.66;5092341;28;20035;-78
2022/07/29 09:50:40;;;;;;;5.28;3.97;;;;;;;27.76;43.60;98585.81;5091974;28;20480;-78
2022/07/29 09:53:09;;;;;;;7.20;3.42;;;;;;;27.83;43.20;98584.94;5091398;28;20670;-77
2022/07/29 09:55:47;;;;;;;5.70;3.40;;;;;;;27.93;43.18;98579.25;5091272;28;21450;-78
2022/07/29 09:58:17;;;;;;;5.00;3.67;;;;;;;28.12;43.14;98576.38;5092106;28;21214;-76
2022/07/29 10:00:44;;;;;;;6.57;3.40;;;;;;;28.30;42.25;98576.25;5073758;28;20028;-80
2022/07/29 10:03:12;;;;;;;5.10;3.80;;;;;;;28.45;42.15;98571.31;5091872;28;20036;-78
2022/07/29 10:05:45;;;;;;;5.93;4.05;;;;;;;28.56;41.60;98579.69;5092847;28;20090;-80
2022/07/29 10:08:12;;;;;;;6.97;3.65;;;;;;;28.67;41.88;98575.53;5071887;28;20027;-79
2022/07/29 10:10:44;;;;;;;6.22;4.00;;;;;;;28.81;41.62;98571.81;5092378;28;20028;-79
2022/07/29 10:13:12;;;;;;;4.28;3.80;;;;;;;28.99;41.33;98572.84;5092516;28;20028;-79
2022/07/29 10:15:44;;;;;;;4.70;3.30;;;;;;;29.03;41.29;98567.97;5092187;28;20067;-79
2022/07/29 10:18:11;;;;;;;3.80;3.45;;;;;;;29.13;40.99;98569.88;5092418;28;20024;-81
2022/07/29 10:20:38;;;;;;;5.70;3.53;;;;;;;29.18;41.49;98563.78;5092493;28;20048;-80
2022/07/29 10:23:04;;;;;;;5.93;3.80;;;;;;;29.24;41.02;98558.47;5088712;28;20055;-82
2022/07/29 10:25:30;;;;;;;6.68;3.70;;;;;;;29.34;40.86;98556.75;5092167;28;20116;-80
2022/07/29 10:27:56;;;;;;;6.63;3.58;;;;;;;29.29;40.52;98551.56;5093033;28;20056;-80
2022/07/29 10:30:24;;;;;;;8.32;3.63;;;;;;;29.27;40.54;98549.16;5092170;28;20422;-77
2022/07/29 10:33:08;;;;;;;4.72;3.53;;;;;;;29.29;39.91;98549.53;5091952;28;20396;-79
2022/07/29 10:35:58;;;;;;;7.85;3.83;;;;;;;29.19;40.33;98556.09;5089448;28;20036;-81
2022/07/29 10:38:52;;;;;;;5.38;3.92;;;;;;;29.13;40.56;98552.94;5092585;28;20035;-80
2022/07/29 10:41:26;;;;;;;4.95;3.85;;;;;;;29.15;40.77;98556.16;5089488;28;20040;-79
2022/07/29 10:44:05;;;;;;;7.20;4.20;;;;;;;29.17;40.90;98556.53;5090564;28;20024;-76
2022/07/29 10:46:38;;;;;;;5.75;3.88;;;;;;;29.21;40.43;98553.66;5080911;28;20024;-75
2022/07/29 10:49:16;;;;;;;6.57;3.60;;;;;;;29.24;39.79;98555.66;5087251;28;20027;-74
2022/07/29 10:52:05;;;;;;;5.32;3.88;;;;;;;29.19;39.85;98558.94;5090538;28;20032;-80
2022/07/29 10:54:33;;;;;;;4.18;3.42;;;;;;;29.13;40.10;98563.47;5089928;28;20105;-81
2022/07/29 10:57:21;;;;;;;6.63;3.65;;;;;;;29.05;39.80;98557.06;5089796;28;20046;-79
2022/07/29 10:59:49;;;;;;;5.80;3.42;;;;;;;29.02;39.82;98561.53;5088473;28;20031;-82
2022/07/29 11:02:56;;;;;;;5.90;3.70;;;;;;;29.00;39.35;98558.34;5088361;28;20487;-81
2022/07/29 11:05:19;;;;;;;6.18;4.05;;;;;;;29.05;39.43;98557.06;5088419;28;20488;-81
2022/07/29 11:08:09;;;;;;;4.38;3.90;;;;;;;29.22;39.70;98560.91;5090047;28;20099;-78
2022/07/29 11:10:35;;;;;;;5.70;3.33;;;;;;;29.49;39.42;98555.38;5089127;28;20052;-78
2022/07/29 11:13:00;;;;;;;3.85;3.47;;;;;;;29.74;38.70;98554.28;5091799;28;20055;-79
2022/07/29 11:15:26;;;;;;;4.70;3.28;;;;;;;29.96;39.04;98553.94;5091238;28;20047;-78
2022/07/29 11:17:54;;;;;;;5.95;3.63;;;;;;;30.10;38.46;98550.13;5091220;28;20165;-82
2022/07/29 11:20:49;;;;;;;9.30;4.10;;;;;;;30.25;38.42;98559.19;5072242;28;20028;-83
2022/07/29 11:23:39;;;;;;;5.90;3.78;;;;;;;30.39;38.58;98553.31;5088249;28;20406;-83
2022/07/29 11:26:12;;;;;;;7.60;3.40;;;;;;;30.40;38.20;98554.94;5086724;28;20146;-78
2022/07/29 11:28:56;;;;;;;4.55;3.70;;;;;;;30.43;38.34;98556.09;5087520;28;20058;-78
2022/07/29 11:31:41;;;;;;;6.18;4.18;;;;;;;30.38;38.30;98565.06;5090185;28;20024;-80
2022/07/29 11:34:20;;;;;;;7.60;3.90;;;;;;;30.30;38.38;98556.69;5087557;28;20027;-79
2022/07/29 11:37:13;;;;;;;6.65;3.67;;;;;;;30.24;38.05;98558.41;5090612;28;20499;-79
2022/07/29 11:39:43;;;;;;;7.25;3.90;;;;;;;30.11;37.19;98563.06;5070228;28;20031;-79
2022/07/29 11:42:24;;;;;;;8.50;4.20;;;;;;;29.95;37.57;98560.84;5089399;28;20044;-78
2022/07/29 11:45:05;;;;;;;6.82;3.95;;;;;;;29.81;37.70;98550.53;5089333;28;20028;-79
2022/07/29 11:47:33;;;;;;;4.38;3.85;;;;;;;29.71;37.63;98553.06;5089659;28;20115;-80